Du har inga inställningar för hoppväder.nu

Hoppväder.nu

Senast uppdaterat 10:13

UTC-tid

2019-04-23 kl. 08:13


Sol och måne

Solen går upp 5:36 och går ner 21:49 (beräknade cirkatider)
Nästa fullmåne blir om 25 dagar (2019-05-18)

METAR

ENRY (Moss, Rygge)
(23 minuter sedan)
ENRY 230750Z VRB02KT CAVOK 15/02 Q1023 NOSIG=



ESGT (Trollhättan/Vänersborg)
(23 minuter sedan)
ESGT 230750Z 14007KT CAVOK 14/05 Q1024=



ENTO (Sandefjord)
(23 minuter sedan)
ENTO 230750Z 01004KT 340V080 CAVOK 12/03 Q1023 NOSIG=



ESIB (Såtenäs)
(23 minuter sedan)
ESIB 230750Z 14009KT CAVOK 14/06 Q1024=



ESOK (Karlstad)
(23 minuter sedan)
ESOK 230750Z 17005KT CAVOK 13/05 Q1025=



TAF

ENRY (Moss, Rygge)
(193 minuter sedan)
ENRY 230500Z 2306/2406 07005KT CAVOK=



ESGT (Trollhättan/Vänersborg)
(163 minuter sedan)
ESGT 230530Z 2306/2315 12005KT CAVOK=



ENTO (Sandefjord)
(193 minuter sedan)
ENTO 230500Z 2306/2406 03008KT CAVOK PROB40 2311/2316 18010KT=



ESIB (Såtenäs)
(203 minuter sedan)
ESIB 230450Z 2305/2314 12005KT CAVOK BECMG 2307/2310 12008G18KT RMK MIL=



ESOK (Karlstad)
(163 minuter sedan)
ESOK 230530Z 2306/2315 14006KT CAVOK=





Kodnycklar till TAF och METAR






LHP

(Näsinge är område I2b i Norra delen)

ÖVERSIKT FÖR OMRÅDE A UTFÄRDAD 230715
GÄLLANDE DEN 23 APRIL 2019 MELLAN 08 OCH 16 UTC


Väderöversikt

Ett högtryck täcker Sverige

Sikt under 5 kilometer eller molnbas under 1000 fot
Väntas inte förekomma under perioden.

Måttlig eller svår isbildning
Väntas inte förekomma under perioden

Måttlig eller svår turbulens
08-16UTC: I hela området



PROGNOS FÖR OMRÅDE A DEN NORRA DELEN UTFÄRDAD 230715
GÄLLANDE DEN 23 APRIL 2019 MELLAN 08 OCH 16 UTC

Måttlig eller svår turbulens
08-16UTC: Område I1a,I1b,I2b,I2a,I2c,I3a,I3b,I4b,I4a,I4d,I4c: Väntas inte förekomma under perioden
Område I1c,I2d,I4e: måttlig turbulens SFC - 3000ft.


Måttlig eller svår isbildning
08-16UTC: I hela området: Väntas inte förekomma under perioden

Sikt/Väder/Moln
08-16UTC: I hela området: Sikt >8km. Molnbas >2000ft.

Molnöversida
08-16UTC: I hela området: Ingen prognos

CB/TCU Moln
08-16UTC: I hela området: Väntas inte förekomma under perioden

Nollgradersisoterm
08-12UTC: Noll grader FL050 - FL090.
12-16UTC: Noll grader FL060 - FL090.

Vind vid marken
08-10UTC: Område I4d: O/1-14 knop, byar upp till 24 knop.
Område I2b: SO/1-11 knop, byar upp till 22 knop.
Område I2a: SO/3-7 knop, byar upp till 15 knop.
Område I1a: O-SO/1-12 knop, byar upp till 21 knop.
Område I1b: O-SO/8-14 knop, byar upp till 23 knop.
Område I3a: O-SO/0-10 knop, byar upp till 21 knop.
Område I1c: O-SO/10-18 knop, byar upp till 28 knop.
Område I3b: SO/2-12 knop, byar upp till 24 knop.
Område I4b: SO/4-13 knop, byar upp till 24 knop.
Område I2c: SO/7-13 knop, byar upp till 26 knop.
Område I4c: SO/5-12 knop, byar upp till 26 knop.
Område I4e: SO/8-15 knop, byar upp till 30 knop.
Område I4a: SO/3-9 knop, byar upp till 21 knop.

08-12UTC: Område I2d: SO/9-14 knop, byar upp till 30 knop.

10-12UTC: Område I2a: SO/4-9 knop, byar upp till 19 knop.
Område I2c: SO/7-13 knop, byar upp till 27 knop.
Område I4e: SO/8-14 knop, byar upp till 30 knop.
Område I1a: SO-S/0-12 knop, byar upp till 23 knop.
Område I2b: SO/3-10 knop, byar upp till 24 knop.
Område I3a: SO/0-15 knop, byar upp till 27 knop.
Område I3b: SO/4-17 knop, byar upp till 28 knop.
Område I4a: SO-S/5-13 knop, byar upp till 27 knop.
Område I4c: SO/8-15 knop, byar upp till 28 knop.
Område I1c: SO/6-18 knop, byar upp till 29 knop.
Område I1b: SO-S/6-14 knop, byar upp till 25 knop.
Område I4b: SO/8-15 knop, byar upp till 29 knop.
Område I4d: SO-S/4-16 knop, byar upp till 28 knop.

12-14UTC: Område I1a: NV-N/0-14 knop, byar upp till 24 knop.
Område I4d: SO/0-15 knop, byar upp till 27 knop.
Område I3b: SO/5-15 knop, byar upp till 27 knop.
Område I1c: SO/2-18 knop, byar upp till 30 knop.
Område I3a: O-SO/1-14 knop, byar upp till 26 knop.
Område I2d: SO/8-15 knop, byar upp till 32 knop.
Område I4e: SO/8-15 knop, byar upp till 31 knop.
Område I4a: SO/5-13 knop, byar upp till 27 knop.
Område I2b: O-SO/2-11 knop, byar upp till 28 knop.
Område I4c: SO/7-14 knop, byar upp till 28 knop.
Område I2c: SO/6-12 knop, byar upp till 27 knop.
Område I4b: SO/6-14 knop, byar upp till 28 knop.
Område I2a: SO/5-10 knop, byar upp till 21 knop.
Område I1b: SO-S/0-13 knop, byar upp till 24 knop.

14-16UTC: Område I2c: O-SO/6-11 knop, byar upp till 25 knop.
Område I4d: SO/4-16 knop, byar upp till 26 knop.
Område I1c: O-SO/0-18 knop, byar upp till 28 knop.
Område I3b: O-SO/4-14 knop, byar upp till 25 knop.
Område I4b: SO/6-14 knop, byar upp till 26 knop.
Område I2b: O-SO/0-12 knop, byar upp till 28 knop.
Område I1a: N/2-13 knop, byar upp till 24 knop.
Område I2d,I4e: O-SO/8-15 knop, byar upp till 31 knop.
Område I4a: SO/4-13 knop, byar upp till 25 knop.
Område I2a: O-SO/4-10 knop, byar upp till 19 knop.
Område I1b: N/3-13 knop, byar upp till 24 knop.
Område I4c: SO/8-14 knop, byar upp till 26 knop.
Område I3a: O-SO/0-13 knop, byar upp till 24 knop.


Genomsnittlig vind och temperatur för området
2000ft:
08-10UTC: 150/19kt +9.
10-12UTC: 140/19kt +10.
12-16UTC: 130/18kt +11.

FL50:
08-10UTC: 150/22kt +1.
10-12UTC: 140/21kt +1.
12-14UTC: 140/19kt +2.
14-16UTC: 130/19kt +3.

FL100:
08-10UTC: 150/20kt -3.
10-12UTC: 150/21kt -3.
12-14UTC: 140/23kt -3.
14-16UTC: 140/23kt -4.

Lägsta QNH
1017 hPa.

OBS! endast utbredd måttlig eller svår isbildning och turbulens prognostiseras i LLF.
Avsaknad av isbildning och turbulens i prognosen utesluter inte förekomst av lätt isbildning och turbulens.
För indikation på lätt isbildning, var vänlig kontrollera om prognosen för molntopp ligger högre än nollgradersisotermen.
Förekomst av TCU eller CB medför alltid en risk för måttlig eller svår isbildning och turbulens även om det inte framgår explicit av prognosen.





Spotting

Hur fungerar spotthjälpen och Vindkartan?

Markvind är ca 1-6 m/s med byar på 11 m/s.
Vind på 600 m ca 10 m/s.
Vind på 1500 m ca 11 m/s.
Vind på 3000 m ca 10 m/s.
Filip Martin flyger ca 44 m/s över marken på finalen.
Du driver ca 463 m bakåt i frifall. (617 m)
Lämplig spot är 4 sekunder eller 175 m efter gropen.
(8 s eller 350 m)
För små grupper eller ensamhoppare bör man vänta 3-5 sekunder mellan grupperna.
För större grupper bör man vänta 7-9 sekunder mellan grupperna.


Vindkartan

Senast uppdaterad 10:13




All data kommer från LFV.se